D/T METAR WX W/DIR W/SPE G/SPE TEMP DEWP
6/06/20 10:50 EGXP 060950Z AUTO 25015KT 9000 // FEW015/// SCT032/// 12/09 Q0990 WSW (250°) 17.3mph 12°C 9°C
6/06/20 09:50 EGXP 060850Z AUTO 25019KT 9999 // SCT009/// SCT050/// 11/09 Q0990 WSW (250°) 21.9mph 11°C 9°C
6/06/20 08:50 EGXP 060750Z AUTO 26014KT 9999 // FEW030/// SCT034/// BKN050/// 08/08 Q0991 W (260°) 16.1mph 8°C 8°C
6/06/20 07:50 EGXP 060650Z AUTO 26018KT 9999 // BKN014/// 08/07 Q0990 W (260°) 20.7mph 8°C 7°C
6/06/20 06:50 EGXP 060550Z AUTO 26018KT 9999 // BKN018/// 07/06 Q0990 W (260°) 20.7mph 7°C 6°C
6/06/20 05:50 EGXP 060450Z AUTO 25019KT 9999 // BKN019/// SCT025/// 07/06 Q0990 WSW (250°) 21.9mph 7°C 6°C
6/06/20 04:50 EGXP 060350Z AUTO 25017KT 9999 // BKN020/// 07/05 Q0991 WSW (250°) 19.6mph 7°C 5°C
6/06/20 03:50 EGXP 060250Z AUTO 26018KT 9999 // BKN023/// 07/05 Q0991 W (260°) 20.7mph 7°C 5°C
6/06/20 02:50 EGXP 060150Z AUTO 25019KT 9999 // BKN028/// SCT038/// 08/03 Q0992 WSW (250°) 21.9mph 8°C 3°C
6/06/20 01:50 EGXP 060050Z AUTO 26015KT 9999 // SCT050/// 07/04 Q0993 W (260°) 17.3mph 7°C 4°C
6/06/20 00:50 EGXP 052350Z AUTO 25015KT 9999 // NCD 07/04 Q0993 WSW (250°) 17.3mph 7°C 4°C
5/06/20 23:50 EGXP 052250Z AUTO 26014KT 9999 // NCD 07/04 Q0993 W (260°) 16.1mph 7°C 4°C
5/06/20 22:50 EGXP 052150Z AUTO 27016G27KT 9999 // NCD 08/03 Q0993 W (270°) 18.4mph 31.1mph 8°C 3°C
5/06/20 21:50 EGXP 052050Z AUTO 27013KT 9999 // NCD 08/04 Q0993 W (270°) 15.0mph 8°C 4°C
5/06/20 20:50 EGXP 051950Z AUTO 28015KT 9999 // SCT043/// 10/04 Q0993 W (280°) 17.3mph 10°C 4°C
5/06/20 19:50 EGXP 051850Z AUTO 24008KT 9999 // FEW050/// SCT070/// 09/07 Q0993 WSW (240°) 9.2mph 9°C 7°C
5/06/20 18:50 EGXP 051750Z AUTO 29005KT 9999 // FEW034/// BKN050/// 08/06 Q0993 WNW (290°) 5.8mph 8°C 6°C
5/06/20 17:50 EGXP 051650Z AUTO 28009KT 9999 // FEW044/// BKN050/// 10/06 Q0994 W (280°) 10.4mph 10°C 6°C
5/06/20 16:50 EGXP 051550Z AUTO 27012KT 9999 // SCT050/// SCT100/// 11/06 Q0994 W (270°) 13.8mph 11°C 6°C
5/06/20 15:50 EGXP 051450Z AUTO 28007KT 9999 // BKN050/// 08/06 Q0994 W (280°) 8.1mph 8°C 6°C
5/06/20 14:50 EGXP 051350Z AUTO 33014KT 9999 // BKN033/// 07/04 Q0994 NNW (330°) 16.1mph 7°C 4°C
5/06/20 13:50 EGXP 051250Z AUTO 29010KT 9999 // BKN046/// 11/07 Q0994 WNW (290°) 11.5mph 11°C 7°C
5/06/20 12:50 EGXP 051150Z 30011G21KT 9999 VCSH FEW030CB SCT036 BKN048 13/04 Q0993 VCSH WNW (300°) 12.7mph 24.2mph 13°C 4°C
5/06/20 11:50 EGXP 051050Z 30013KT 9999 VCSH FEW028CB BKN060 12/05 Q0994 VCSH WNW (300°) 15.0mph 12°C 5°C
5/06/20 11:35 EGXP 051035Z 30010KT 9999 VCSH FEW044CB BKN050 10/05 Q0994 VCSH WNW (300°) 11.5mph 10°C 5°C
5/06/20 10:50 EGXP 050950Z 31012KT 9999 -SHRA SCT022 BKN027 BKN038 09/06 Q0994 -SHRA NW (310°) 13.8mph 9°C 6°C
5/06/20 09:50 EGXP 050850Z 32011KT 9999 SCT015 BKN030 BKN130 09/06 Q0994 NW (320°) 12.7mph 9°C 6°C
5/06/20 09:31 EGXP 050831Z 31013KT 9999 SCT015 BKN050 BKN130 10/06 Q0994 NW (310°) 15.0mph 10°C 6°C
5/06/20 08:50 EGXP 050750Z 32011KT 9999 FEW011 BKN030 BKN070 09/07 Q0994 NW (320°) 12.7mph 9°C 7°C
5/06/20 07:50 EGXP 050650Z 34007KT 9999 VCSH SCT010 SCT030 BKN070 08/07 Q0994 VCSH NNW (340°) 8.1mph 8°C 7°C
5/06/20 06:50 EGXP 050550Z AUTO 35010KT 9999 // SCT008/// BKN028/// 08/07 Q0993 N (350°) 11.5mph 8°C 7°C
5/06/20 05:50 EGXP 050450Z AUTO 36011KT 9999 // SCT007/// SCT015/// BKN020/// 08/07 Q0993 N (360°) 12.7mph 8°C 7°C
5/06/20 04:50 EGXP 050350Z AUTO 36012KT 9999 // BKN003/// SCT011/// 08/08 Q0993 N (360°) 13.8mph 8°C 8°C
5/06/20 03:50 EGXP 050250Z AUTO 27009KT 9999 // BKN025/// SCT070/// 09/08 Q0993 W (270°) 10.4mph 9°C 8°C
5/06/20 02:50 EGXP 050150Z AUTO 29009KT 9999 // BKN017/// 10/08 Q0994 WNW (290°) 10.4mph 10°C 8°C
5/06/20 01:50 EGXP 050050Z AUTO 26009KT 9999 // BKN023/// SCT030/// 10/09 Q0994 W (260°) 10.4mph 10°C 9°C
5/06/20 00:50 EGXP 042350Z AUTO 25008KT 9999 // SCT027/// BKN050/// BKN160/// 10/09 Q0995 WSW (250°) 9.2mph 10°C 9°C
4/06/20 23:50 EGXP 042250Z AUTO 23008KT 9999 // FEW060/// BKN140/// 09/08 Q0996 SW (230°) 9.2mph 9°C 8°C
4/06/20 22:50 EGXP 042150Z AUTO 21006KT 9999 // SCT026/// BKN160/// 10/09 Q0997 SSW (210°) 6.9mph 10°C 9°C
4/06/20 21:50 EGXP 042050Z AUTO 21003KT 9999 // SCT030/// SCT038/// 10/10 Q0998 SSW (210°) 3.5mph 10°C 10°C
4/06/20 20:50 EGXP 041950Z AUTO 25004KT 9999 // FEW035/// BKN043/// 10/09 Q0998 WSW (250°) 4.6mph 10°C 9°C
4/06/20 19:50 EGXP 041850Z AUTO 23006KT 9999 // OVC050/// 10/08 Q0998 SW (230°) 6.9mph 10°C 8°C
4/06/20 18:50 EGXP 041750Z AUTO 23006KT 9999 // FEW044/// BKN050/// 11/08 Q0999 SW (230°) 6.9mph 11°C 8°C
4/06/20 17:50 EGXP 041650Z AUTO 23005KT 9999 // OVC050/// 13/06 Q0999 SW (230°) 5.8mph 13°C 6°C
4/06/20 16:50 EGXP 041550Z AUTO 25004KT 9999 // BKN050/// BKN110/// 13/06 Q1000 WSW (250°) 4.6mph 13°C 6°C
4/06/20 15:50 EGXP 041450Z AUTO 31004KT 9999 // BKN032/// BKN046/// 12/06 Q1001 NW (310°) 4.6mph 12°C 6°C
4/06/20 14:50 EGXP 041350Z AUTO 29002KT 9999 // BKN039/// BKN048/// 11/07 Q1001 WNW (290°) 2.3mph 11°C 7°C
4/06/20 13:50 EGXP 041250Z AUTO 30005KT 9999 // BKN034/// SCT050/// 10/07 Q1002 WNW (300°) 5.8mph 10°C 7°C
4/06/20 12:50 EGXP 041150Z AUTO 33010KT 9999 // OVC040/// 11/05 Q1003 NNW (330°) 11.5mph 11°C 5°C
4/06/20 11:50 EGXP 041050Z 32008KT 9999 BKN039 BKN060 11/06 Q1003 RMK BLU NW (320°) 9.2mph 11°C 6°C
4/06/20 10:50 EGXP 040950Z AUTO 32009KT 9999 // FEW044/// BKN050/// 11/05 Q1003 NW (320°) 10.4mph 11°C 5°C
4/06/20 09:50 EGXP 040850Z 32010KT 9999 FEW004 SCT060 BKN130 11/06 Q1003 RMK BLU NW (320°) 11.5mph 11°C 6°C
4/06/20 08:50 EGXP 040750Z 31009KT CAVOK 10/07 Q1004 RMK BLU NW (310°) 10.4mph 10°C 7°C
4/06/20 07:50 EGXP 040650Z 32010KT 9999 FEW008 BKN120 09/07 Q1004 RMK BLU NW (320°) 11.5mph 9°C 7°C
4/06/20 06:50 EGXP 040550Z AUTO 33009KT 9999 // FEW006/// BKN140/// 09/07 Q1005 NNW (330°) 10.4mph 9°C 7°C
4/06/20 05:50 EGXP 040450Z AUTO 32010KT 9999 // BKN060/// BKN170/// 08/07 Q1005 NW (320°) 11.5mph 8°C 7°C
4/06/20 04:50 EGXP 040350Z AUTO 34008KT 9999 // BKN060/// BKN180/// 08/07 Q1005 NNW (340°) 9.2mph 8°C 7°C
4/06/20 03:50 EGXP 040250Z AUTO 34009KT 9999 // FEW014/// BKN060/// 09/08 Q1006 NNW (340°) 10.4mph 9°C 8°C
4/06/20 02:50 EGXP 040150Z AUTO 34010KT 9999 // BKN009/// SCT023/// 09/09 Q1006 NNW (340°) 11.5mph 9°C 9°C
4/06/20 01:50 EGXP 040050Z AUTO 33011KT 9999 // SCT013/// SCT018/// 09/08 Q1007 NNW (330°) 12.7mph 9°C 8°C
4/06/20 00:50 EGXP 032350Z AUTO 32010KT 9999 // SCT015/// SCT060/// 08/07 Q1008 NW (320°) 11.5mph 8°C 7°C
3/06/20 23:50 EGXP 032250Z AUTO 34010KT 9999 // OVC050/// 09/07 Q1008 NNW (340°) 11.5mph 9°C 7°C
3/06/20 22:50 EGXP 032150Z AUTO 34009KT 9999 // BKN050/// SCT070/// 10/07 Q1009 NNW (340°) 10.4mph 10°C 7°C
3/06/20 21:50 EGXP 032050Z AUTO 35011KT 9999 // FEW019/// BKN043/// 10/07 Q1009 N (350°) 12.7mph 10°C 7°C
3/06/20 20:50 EGXP 031950Z AUTO 36013KT 9999 // BKN013/// BKN020/// 10/08 Q1009 N (360°) 15.0mph 10°C 8°C
3/06/20 19:50 EGXP 031850Z AUTO 36012KT 9999 // OVC011/// 11/09 Q1009 N (360°) 13.8mph 11°C 9°C
3/06/20 18:50 EGXP 031750Z AUTO 01014KT 9999 // OVC011/// 11/09 Q1010 N (10°) 16.1mph 11°C 9°C
3/06/20 17:50 EGXP 031650Z AUTO 01016KT 9999 // SCT011/// BKN018/// 11/10 Q1010 N (10°) 18.4mph 11°C 10°C
3/06/20 16:50 EGXP 031550Z AUTO 01015KT 9999 // FEW010/// BKN016/// 12/10 Q1010 N (10°) 17.3mph 12°C 10°C
3/06/20 15:50 EGXP 031450Z AUTO 02014KT 9999 // FEW009/// BKN017/// 12/11 Q1010 NNE (20°) 16.1mph 12°C 11°C
3/06/20 13:50 EGXP 031250Z AUTO 03012KT 9999 // FEW018/// BKN031/// BKN050/// 14/11 Q1010 NNE (30°) 13.8mph 14°C 11°C
3/06/20 11:50 EGXP 031050Z 04013KT 9999 FEW013 SCT018 BKN060 14/11 Q1010 RMK CC WHT NE (40°) 15.0mph 14°C 11°C
3/06/20 10:50 EGXP 030950Z 03013KT 9999 BKN009 SCT027 13/12 Q1010 NNE (30°) 15.0mph 13°C 12°C
3/06/20 09:50 EGXP 030850Z 04012KT 9999 -RA SCT007 BKN050 13/12 Q1010 -RA NE (40°) 13.8mph 13°C 12°C
3/06/20 08:50 EGXP 030750Z 03011KT 7000 RA SCT030 BKN045 13/12 Q1010 RMK CC WHT RA NNE (30°) 12.7mph 13°C 12°C
3/06/20 07:50 EGXP 030650Z 36009KT 8000 RA OVC044 12/12 Q1010 RMK CC BLU RA N (360°) 10.4mph 12°C 12°C
3/06/20 06:50 EGXP 030550Z 36009KT 9000 RA OVC060 12/11 Q1010 RMK CC BLU RA N (360°) 10.4mph 12°C 11°C
3/06/20 05:50 EGXP 030450Z AUTO 33005KT 9999 // FEW012/// OVC050/// 13/11 Q1011 NNW (330°) 5.8mph 13°C 11°C
3/06/20 04:50 EGXP 030350Z AUTO 03005KT 9999 // OVC060/// 13/10 Q1010 NNE (30°) 5.8mph 13°C 10°C
3/06/20 03:50 EGXP 030250Z AUTO 01005KT 9999 // OVC060/// 13/09 Q1011 N (10°) 5.8mph 13°C 9°C
3/06/20 02:50 EGXP 030150Z AUTO 07004KT 9999 // OVC070/// 13/08 Q1011 ENE (70°) 4.6mph 13°C 8°C
3/06/20 01:50 EGXP 030050Z AUTO 02003KT 9999 // OVC070/// 13/08 Q1012 NNE (20°) 3.5mph 13°C 8°C
3/06/20 00:50 EGXP 022350Z AUTO 36003KT 9999 // OVC070/// 14/07 Q1013 N (360°) 3.5mph 14°C 7°C
2/06/20 23:50 EGXP 022250Z AUTO 09004KT 9999 // SCT080/// BKN130/// 14/07 Q1013 E (90°) 4.6mph 14°C 7°C
2/06/20 22:50 EGXP 022150Z AUTO 09005KT 9999 // SCT160/// 14/07 Q1014 E (90°) 5.8mph 14°C 7°C
2/06/20 21:50 EGXP 022050Z AUTO 12005KT 9999 // SCT160/// 15/07 Q1014 ESE (120°) 5.8mph 15°C 7°C
2/06/20 20:50 EGXP 021950Z AUTO 10007KT 9999 // BKN160/// 17/07 Q1014 E (100°) 8.1mph 17°C 7°C
2/06/20 19:50 EGXP 021850Z AUTO 10007KT 9999 // FEW150/// 19/08 Q1014 E (100°) 8.1mph 19°C 8°C
2/06/20 18:50 EGXP 021750Z AUTO 08009KT 9999 // BKN160/// 21/08 Q1015 E (80°) 10.4mph 21°C 8°C
2/06/20 17:50 EGXP 021650Z AUTO 06007KT 9999 // SCT170/// 22/08 Q1015 ENE (60°) 8.1mph 22°C 8°C
2/06/20 16:50 EGXP 021550Z AUTO 13005KT 9999 // NCD 23/07 Q1016 SE (130°) 5.8mph 23°C 7°C
2/06/20 15:50 EGXP 021450Z AUTO 34006KT 9999 // FEW190/// 23/06 Q1017 NNW (340°) 6.9mph 23°C 6°C
2/06/20 14:50 EGXP 021350Z AUTO 03006KT 9999 // NCD 23/05 Q1018 NNE (30°) 6.9mph 23°C 5°C
2/06/20 13:50 EGXP 021250Z AUTO 03006KT 9999 // FEW200/// 21/05 Q1018 NNE (30°) 6.9mph 21°C 5°C
2/06/20 12:50 EGXP 021150Z AUTO 05006KT 9999 // NCD 21/06 Q1019 NE (50°) 6.9mph 21°C 6°C
2/06/20 11:50 EGXP 021050Z 33007KT CAVOK 20/07 Q1020 RMK BLU NNW (330°) 8.1mph 20°C 7°C